Pike Station, Illinois
Current Conditions -  °F | °C
As of 2:15 PM on Sunday 23 Nov 2014 (Local Time) from KPPQ Reporting Station
Overcast Overcast  
Wind Chill: 12°   Ceiling: 600
Heat Index: 12°   Visibility: 5mi
Dew Point: 11°   Wind: 10mph
Humidity: 91%   Direction: 150°SSE
Pressure: 29.4"   Gusts: NA
Location:  39.5365°N, 91.0118°W
Report Text: KPPQ 232015Z AUTO 15009KT 5SM BKN006 OVC010 12/11 A2940 RMK AO2 P0002 T01240110 PWINO
Loading
Personal Weather Stations






























Interactive Weather Map New forecast layout! Learn more

10-Day Weather Forecast

Advertisements
Track Severe Weather on mobile